Latest Weather Observations for Gabo Island

IDN60801

Issued at 10:35 pm EST Friday 25 July 2014 (issued every 30 minutes, with the page automatically refreshed every 10 minutes)

About weather observations | Map of weather stations | Latest weather observations for NSW | Other Formats
Station Details ID: 084016 Name: GABO ISLAND LIGHTHOUSE Lat: -37.57 Lon: 149.92 Height: 15.2 m
Data from the previous 72 hours. | See also: Recent months at Gabo Island
Date/Time
EST
Temp
°C
App
Temp
°C
Dew
Point
Rel
Hum
%
Delta-T
°C
Wind Press
QNH
hPa
Press
MSL
hPa
Rain
since 9 am
mm
Dir
 
Spd
km/h
Gust
km/h
Spd
kts
Gust
kts
25/10:30pm 13.7 10.1 6.6 62 3.4 WNW 15 20 8 11 1020.3 - 0.0
25/10:00pm 13.8 10.6 6.7 62 3.4 WNW 13 15 7 8 1020.2 - 0.0
25/09:30pm 12.3 9.2 8.7 79 1.8 WNW 15 17 8 9 1020.3 - 0.0
25/09:00pm 13.0 10.4 9.4 79 1.8 W 13 15 7 8 1020.3 1020.2 0.0
25/08:30pm 14.2 11.6 7.9 66 3.1 NNW 11 13 6 7 1020.1 - 0.0
25/08:00pm 13.7 11.2 8.0 68 2.8 N 11 13 6 7 1019.9 - 0.0
25/07:30pm 13.7 10.4 8.0 68 2.8 N 15 17 8 9 1019.7 - 0.0
25/07:00pm 12.9 9.7 8.5 74 2.2 N 15 19 8 10 1019.5 - 0.0
25/06:30pm 12.7 9.0 9.5 81 1.6 N 19 22 10 12 1019.1 - 0.0
25/06:00pm 14.4 12.9 9.3 71 2.6 WSW 7 7 4 4 1018.6 1018.5 0.0
25/05:30pm 14.8 15.1 10.8 77 2.1 CALM 0 6 0 3 1018.2 - 0.0
25/05:00pm 15.8 13.3 11.1 73 2.5 S 15 17 8 9 1017.9 - 0.0
25/04:30pm 16.2 14.0 10.7 70 2.9 S 13 15 7 8 1017.6 - 0.0
25/04:00pm 17.2 15.6 11.7 70 3.0 S 11 11 6 6 1017.3 - 0.0
25/03:30pm 17.7 16.8 11.2 65 3.5 SE 7 9 4 5 1017.3 - 0.0
25/03:00pm 19.4 17.3 8.2 48 5.8 SSW 9 11 5 6 1017.1 - 0.0
25/02:30pm 19.1 16.9 8.0 48 5.7 WSW 9 13 5 7 1016.9 - 0.0
25/02:00pm 19.7 16.6 7.3 44 6.3 W 13 15 7 8 1016.9 - 0.0
25/01:30pm 19.7 16.3 7.8 46 6.1 WNW 15 20 8 11 1017.0 - 0.0
25/01:00pm 19.3 15.6 8.0 48 5.8 W 17 22 9 12 1017.2 - 0.0
25/12:30pm 18.4 15.4 7.8 50 5.4 WNW 13 15 7 8 1017.3 - 0.0
25/12:00pm 16.2 14.6 10.1 67 3.2 SW 9 13 5 7 1017.6 1017.7 0.0
25/11:30am 16.2 15.0 9.4 64 3.5 S 6 7 3 4 1018.0 - 0.0
25/11:00am 15.9 14.5 9.5 66 3.3 ENE 7 9 4 5 1018.3 - 0.0
25/10:30am 16.2 14.1 8.3 59 4.0 NW 9 13 5 7 1018.3 - 0.0
25/10:00am 14.1 11.7 8.5 69 2.8 W 11 13 6 7 1018.5 - 0.0
25/09:30am 13.1 10.9 8.0 71 2.5 W 9 11 5 6 1018.5 - 0.0
25/09:00am 12.9 12.0 7.8 71 2.5 W 2 7 1 4 1018.4 1018.4 0.0
25/08:30am 12.6 10.8 7.9 73 2.3 NW 7 11 4 6 1018.2 - 0.0
25/08:00am 12.0 9.3 8.8 81 1.6 N 13 17 7 9 1018.0 - 0.0
25/07:30am 10.6 7.9 7.5 81 1.5 NNE 11 13 6 7 1017.7 - 0.0
25/07:00am 10.4 8.9 7.0 79 1.6 N 4 11 2 6 1017.7 - 0.0
25/06:30am 10.4 8.5 7.5 82 1.4 NNE 7 9 4 5 1017.5 - 0.0
25/06:00am 10.1 7.5 7.6 84 1.2 - 11 13 6 7 1017.1 - 0.0
25/05:30am 10.4 8.5 6.8 78 1.7 NNE 6 7 3 4 1017.1 - 0.0
25/05:00am 11.2 10.7 7.7 79 1.7 CALM 0 7 0 4 1017.1 - 0.0
25/04:30am 11.4 9.0 8.6 83 1.4 NW 11 13 6 7 1017.2 - 0.0
25/04:00am 12.0 8.4 8.3 78 1.8 N 17 20 9 11 1017.2 - 0.0
25/03:30am 12.9 9.2 9.3 79 1.8 N 19 22 10 12 1017.0 - 0.0
25/03:00am 13.5 9.8 9.4 76 2.1 - 19 22 10 12 1016.8 - 0.0
25/02:30am 14.1 10.2 9.6 74 2.3 NE 20 24 11 13 1016.9 - 0.0
25/02:00am 14.4 11.6 8.4 67 3.0 NE 13 17 7 9 1017.2 - 0.0
25/01:30am 14.5 12.1 6.9 60 3.7 N 9 13 5 7 1017.4 - 0.0
25/01:00am 14.3 11.2 7.4 63 3.4 N 13 15 7 8 1017.3 - 0.0
25/12:30am 14.2 12.3 7.7 65 3.2 NNE 7 11 4 6 1017.4 - 0.0
25/12:00am 14.3 11.7 7.6 64 3.3 N 11 19 6 10 1017.6 1017.6 0.0
 
Date/Time
EST
Temp
°C
App
Temp
°C
Dew
Point
Rel
Hum
%
Delta-T
°C
Wind Press
QNH
hPa
Press
MSL
hPa
Rain
since 9 am
mm
Dir
 
Spd
km/h
Gust
km/h
Spd
kts
Gust
kts
24/11:30pm 14.0 10.7 8.2 68 2.9 NNE 15 19 8 10 1017.8 - 0.0
24/11:00pm 13.8 9.9 8.8 72 2.5 NNE 19 22 10 12 1017.8 - 0.0
24/10:30pm 12.7 9.8 8.0 73 2.3 N 13 20 7 11 1018.0 - 0.0
24/10:00pm 12.1 9.8 7.3 72 2.3 N 9 11 5 6 1018.1 - 0.0
24/09:30pm 13.0 9.6 7.7 70 2.6 N 15 20 8 11 1018.1 - 0.0
24/09:00pm 13.0 9.6 9.0 77 2.0 N 17 20 9 11 1018.1 1018.1 0.0
24/08:30pm 13.7 10.0 9.6 76 2.1 NNE 19 22 10 12 1018.0 - 0.0
24/08:00pm 13.8 10.1 9.5 75 2.2 N 19 24 10 13 1017.9 - 0.0
24/07:30pm 13.7 10.1 10.0 78 1.9 NNE 19 24 10 13 1017.8 - 0.0
24/07:00pm 14.0 10.4 10.6 80 1.8 NNE 20 24 11 13 1017.8 - 0.0
24/06:30pm 14.1 10.5 10.7 80 1.8 NNE 20 26 11 14 1017.6 - 0.0
24/06:00pm 13.9 9.4 10.2 78 1.9 NNE 24 30 13 16 1017.4 1017.4 0.0
24/05:30pm 14.0 8.8 10.1 77 2.0 N 28 37 15 20 1017.2 - 0.0
24/05:00pm 14.5 9.0 10.5 77 2.1 NNE 30 35 16 19 1017.0 - 0.0
24/04:30pm 14.5 9.4 10.7 78 2.0 NNE 28 33 15 18 1016.7 - 0.0
24/04:00pm 14.8 8.7 10.6 76 2.2 NNE 33 43 18 23 1016.5 - 0.0
24/03:30pm 14.9 8.1 10.5 75 2.3 NNE 37 46 20 25 1016.3 - 0.0
24/03:00pm 14.9 7.6 10.3 74 2.4 NNE 39 46 21 25 1016.3 1016.3 0.0
24/02:30pm 15.3 8.3 9.9 70 2.8 NNE 37 43 20 23 1016.4 - 0.0
24/02:00pm 15.2 9.1 9.6 69 2.9 NNE 32 39 17 21 1016.8 - 0.0
24/01:30pm 14.5 7.5 8.5 67 3.0 NNE 35 43 19 23 1017.0 - 0.0
24/01:00pm 14.4 7.8 8.6 68 2.9 NNE 33 39 18 21 1017.3 - 0.0
24/12:30pm 14.9 9.3 8.6 66 3.2 NNE 28 35 15 19 1017.7 - 0.0
24/12:00pm 14.5 9.3 8.8 68 2.9 NNE 26 33 14 18 1018.4 1018.5 0.0
24/11:30am 14.6 8.7 9.1 69 2.8 NE 30 35 16 19 1018.8 - 0.0
24/11:00am 14.5 9.7 9.0 69 2.8 NE 24 30 13 16 1019.3 - 0.0
24/10:30am 14.9 10.9 9.0 68 3.0 NNE 20 28 11 15 1019.7 - 0.0
24/10:00am 14.7 9.5 8.8 68 3.0 NNE 26 32 14 17 1019.7 - 0.0
24/09:30am 14.3 10.0 9.2 71 2.6 NNE 22 28 12 15 1019.6 - 0.0
24/09:00am 13.2 9.3 8.6 73 2.3 NNE 19 20 10 11 1019.7 1019.7 0.0
24/08:30am 12.4 9.2 8.3 76 2.0 NNE 15 19 8 10 1019.7 - 0.0
24/08:00am 11.4 9.3 8.3 81 1.5 NNE 9 17 5 9 1019.6 - 0.0
24/07:30am 10.0 7.4 7.9 87 1.0 NNE 11 15 6 8 1019.7 - 0.0
24/07:00am 10.0 6.7 7.9 87 1.0 N 15 19 8 10 1019.6 - 0.0
24/06:30am 11.4 6.1 8.6 83 1.4 NNE 26 30 14 16 1019.4 - 0.0
24/06:00am 11.5 6.3 8.9 84 1.3 NNE 26 30 14 16 1019.2 1019.2 0.0
24/05:30am 11.4 6.6 9.0 85 1.2 NNE 24 30 13 16 1019.2 - 0.0
24/05:00am 11.4 6.6 9.0 85 1.2 NNE 24 28 13 15 1019.2 - 0.0
24/04:30am 11.1 5.9 8.7 85 1.2 NNE 26 30 14 16 1019.3 - 0.0
24/04:00am 11.0 6.2 8.8 86 1.1 NNE 24 30 13 16 1019.1 - 0.0
24/03:30am 10.9 6.5 8.9 87 1.0 NNE 22 28 12 15 1019.3 - 0.0
24/03:00am 11.0 6.6 8.8 86 1.1 NNE 22 28 12 15 1019.3 1019.4 0.0
24/02:30am 10.6 6.6 8.3 86 1.1 NNE 19 22 10 12 1019.5 - 0.0
24/02:00am 9.6 6.4 7.0 84 1.2 N 13 17 7 9 1019.7 - 0.0
24/01:30am 10.1 6.3 7.4 83 1.3 N 17 22 9 12 1019.9 - 0.0
24/01:00am 10.6 6.8 7.7 82 1.4 NNE 17 20 9 11 1020.0 - 0.0
24/12:30am 8.6 6.2 7.1 90 0.7 NNE 9 11 5 6 1020.5 - 0.0
24/12:00am 9.3 7.3 6.9 85 1.1 N 7 9 4 5 1020.9 1021.1 0.0
 
Date/Time
EST
Temp
°C
App
Temp
°C
Dew
Point
Rel
Hum
%
Delta-T
°C
Wind Press
QNH
hPa
Press
MSL
hPa
Rain
since 9 am
mm
Dir
 
Spd
km/h
Gust
km/h
Spd
kts
Gust
kts
23/11:30pm 9.2 6.7 6.4 83 1.3 N 9 9 5 5 1021.4 - 0.0
23/11:00pm 9.1 6.2 6.3 83 1.3 N 11 13 6 7 1021.6 - 0.0
23/10:30pm 9.3 6.4 6.3 81 1.4 N 11 13 6 7 1021.9 - 0.0
23/10:00pm 10.1 6.9 6.7 79 1.6 N 13 15 7 8 1022.0 - 0.0
23/09:30pm 10.4 7.4 7.5 82 1.4 N 13 17 7 9 1022.0 - 0.0
23/09:00pm 10.4 7.4 7.5 82 1.4 N 13 15 7 8 1022.1 1022.1 0.0
23/08:30pm 10.8 7.9 8.1 83 1.3 N 13 15 7 8 1022.1 - 0.0
23/08:00pm 11.4 8.1 8.1 80 1.6 N 15 19 8 10 1022.1 - 0.0
23/07:30pm 11.6 8.3 8.1 79 1.7 N 15 17 8 9 1022.0 - 0.0
23/07:00pm 12.3 8.8 8.9 80 1.7 NNE 17 20 9 11 1021.9 - 0.0
23/06:30pm 11.8 8.8 9.2 84 1.3 N 15 17 8 9 1021.8 - 0.0
23/06:00pm 12.7 9.8 9.5 81 1.6 NNE 15 17 8 9 1021.6 1021.6 0.0
23/05:30pm 12.9 10.1 8.7 75 2.1 NNE 13 17 7 9 1021.6 - 0.0
23/05:00pm 13.1 10.1 7.8 70 2.6 NE 13 17 7 9 1021.4 - 0.0
23/04:30pm 13.6 11.1 8.4 71 2.6 ENE 11 13 6 7 1021.4 - 0.0
23/04:00pm 14.1 12.1 8.7 70 2.7 ENE 9 11 5 6 1021.4 - 0.0
23/03:30pm 14.4 12.8 8.9 69 2.8 ESE 7 11 4 6 1021.4 - 0.0
23/03:00pm 14.5 13.0 9.0 69 2.8 SSE 7 9 4 5 1021.5 1021.5 0.0
23/02:30pm 14.4 12.8 8.6 68 2.9 S 7 9 4 5 1021.6 - 0.0
23/02:00pm 14.6 12.6 8.6 67 3.0 SSW 9 11 5 6 1021.7 - 0.0
23/01:30pm 14.3 12.2 8.1 66 3.1 SW 9 11 5 6 1022.0 - 0.0
23/01:00pm 13.9 11.3 7.6 66 3.1 WSW 11 15 6 8 1022.4 - 0.0
23/12:30pm 13.7 10.7 7.6 66 3.0 WSW 13 15 7 8 1022.8 - 0.0
23/12:00pm 13.6 10.4 7.0 64 3.2 WSW 13 15 7 8 1023.3 1023.4 0.0
23/11:30am 13.5 9.9 6.8 64 3.2 WSW 15 19 8 10 1023.8 - 0.0
23/11:00am 13.5 10.2 6.4 62 3.4 W 13 19 7 10 1024.4 - 0.0
23/10:30am 13.0 9.3 6.2 63 3.2 WNW 15 19 8 10 1024.8 - 0.0
23/10:00am 12.6 8.4 5.7 63 3.2 WNW 17 20 9 11 1024.9 - 0.0
23/09:30am 11.7 7.1 5.4 65 2.9 WNW 19 22 10 12 1025.0 - 0.0
23/09:00am 11.2 6.6 5.8 69 2.5 WNW 19 24 10 13 1024.7 1024.7 0.0
23/08:30am 10.7 6.1 5.4 70 2.4 NW 19 22 10 12 1024.5 - 0.0
23/08:00am 10.2 5.9 5.3 71 2.2 NW 17 22 9 12 1024.5 - 0.0
23/07:30am 9.6 5.0 5.4 75 1.9 NW 19 24 10 13 1024.5 - 0.0
23/07:00am 9.4 5.1 5.4 76 1.8 WNW 17 22 9 12 1024.2 - 0.0
23/06:30am 9.4 5.1 5.4 76 1.8 WNW 17 24 9 13 1024.1 - 0.0
23/06:00am 9.2 4.9 5.2 76 1.8 WNW 17 22 9 12 1023.8 1023.7 0.0
23/05:30am 8.8 4.6 5.5 80 1.5 WNW 17 20 9 11 1023.5 - 0.0
23/05:00am 8.9 4.6 5.3 78 1.6 WNW 17 20 9 11 1023.6 - 0.0
23/04:30am 8.9 4.9 5.1 77 1.7 WNW 15 19 8 10 1023.4 - 0.0
23/04:00am 8.9 5.1 5.6 80 1.5 W 15 20 8 11 1023.4 - 0.0
23/03:30am 9.4 5.5 5.4 76 1.8 WNW 15 20 8 11 1023.3 - 0.0
23/03:00am 9.3 5.4 5.3 76 1.8 WNW 15 19 8 10 1023.6 1023.6 0.0
23/02:30am 9.5 5.3 5.5 76 1.8 WNW 17 20 9 11 1023.8 - 0.0
23/02:00am 9.6 5.3 5.4 75 1.9 WNW 17 20 9 11 1023.8 - 0.0
23/01:30am 9.9 5.5 5.0 71 2.2 WNW 17 20 9 11 1024.1 - 0.0
23/01:00am 10.0 5.7 5.4 73 2.1 NW 17 22 9 12 1024.1 - 0.0
23/12:30am 10.2 6.0 5.8 74 2.0 NW 17 20 9 11 1024.2 - 0.0
23/12:00am 10.4 6.4 6.5 77 1.8 WNW 17 20 9 11 1024.3 1024.3 0.0
 
Date/Time
EST
Temp
°C
App
Temp
°C
Dew
Point
Rel
Hum
%
Delta-T
°C
Wind Press
QNH
hPa
Press
MSL
hPa
Rain
since 9 am
mm
Dir
 
Spd
km/h
Gust
km/h
Spd
kts
Gust
kts
22/11:30pm 10.3 6.0 6.9 79 1.6 WNW 19 20 10 11 1024.5 - 0.0
22/11:00pm 10.4 7.3 7.2 80 1.5 WNW 13 17 7 9 1024.7 - 0.0

Other Formats:

Comma delimited format used in spreadsheet applications
http://www.bom.gov.au/fwo/IDN60801/IDN60801.94933.axf

JavaScript Object Notation format (JSON) in row-major order
http://www.bom.gov.au/fwo/IDN60801/IDN60801.94933.json